createdAt,value
2018-05-04T00:00:16.756Z,15.95
2018-05-04T00:02:45.109Z,15.94
2018-05-04T00:05:13.470Z,15.96
2018-05-04T00:07:41.862Z,15.44
2018-05-04T00:10:10.250Z,15.69
2018-05-04T00:12:38.607Z,15.83
2018-05-04T00:15:07.006Z,15.75
2018-05-04T00:17:35.371Z,15.63
2018-05-04T00:20:03.732Z,15.51
2018-05-04T00:22:32.115Z,15.62
2018-05-04T00:25:00.470Z,15.58
2018-05-04T00:27:29.214Z,15.62
2018-05-04T00:29:57.774Z,15.82
2018-05-04T00:32:26.178Z,15.83
2018-05-04T00:34:54.544Z,15.81
2018-05-04T00:37:22.920Z,15.75
2018-05-04T00:39:51.303Z,15.74
2018-05-04T00:42:19.678Z,15.64
2018-05-04T00:44:48.048Z,15.66
2018-05-04T00:47:16.411Z,15.36
2018-05-04T00:49:44.787Z,15.54
2018-05-04T00:52:13.215Z,15.66
2018-05-04T00:54:41.569Z,15.61
2018-05-04T00:57:09.924Z,15.47
2018-05-04T00:59:38.340Z,15.38
2018-05-04T01:02:07.442Z,15.28
2018-05-04T01:04:35.814Z,15.32
2018-05-04T01:07:04.187Z,15.13
2018-05-04T01:09:32.666Z,15.26
2018-05-04T01:12:01.019Z,15.12
2018-05-04T01:14:29.432Z,15.32
2018-05-04T01:16:57.802Z,15.38
2018-05-04T01:19:26.182Z,15.05
2018-05-04T01:21:54.571Z,15.22
2018-05-04T01:24:22.950Z,15.28
2018-05-04T01:26:51.328Z,15.28
2018-05-04T01:29:19.710Z,15.25
2018-05-04T01:31:48.081Z,15.11
2018-05-04T01:34:16.443Z,15.28
2018-05-04T01:36:44.838Z,15.30
2018-05-04T01:39:13.206Z,15.34
2018-05-04T01:41:41.610Z,15.18
2018-05-04T01:44:09.993Z,15.04
2018-05-04T01:46:38.354Z,15.06
2018-05-04T01:49:06.797Z,15.21
2018-05-04T01:51:35.130Z,14.90
2018-05-04T01:54:03.498Z,14.99
2018-05-04T01:56:31.873Z,15.11
2018-05-04T01:59:00.251Z,15.07
2018-05-04T02:01:28.607Z,14.85
2018-05-04T02:03:56.965Z,14.81
2018-05-04T02:06:25.414Z,14.70
2018-05-04T02:08:53.774Z,14.80
2018-05-04T02:11:22.252Z,14.73
2018-05-04T02:13:50.677Z,14.91
2018-05-04T02:16:19.418Z,14.84
2018-05-04T02:18:48.393Z,14.83
2018-05-04T02:21:16.808Z,14.86
2018-05-04T02:23:45.184Z,14.78
2018-05-04T02:26:13.534Z,14.82
2018-05-04T02:28:41.921Z,14.63
2018-05-04T02:31:10.280Z,14.77
2018-05-04T02:33:38.651Z,14.71
2018-05-04T02:36:07.028Z,14.50
2018-05-04T02:38:35.390Z,14.54
2018-05-04T02:41:04.170Z,14.56
2018-05-04T02:43:32.616Z,14.79
2018-05-04T02:46:00.970Z,14.64
2018-05-04T02:48:29.330Z,14.51
2018-05-04T02:50:57.714Z,14.71
2018-05-04T02:53:26.091Z,14.65
2018-05-04T02:55:54.503Z,14.72
2018-05-04T02:58:22.879Z,14.68
2018-05-04T03:00:51.236Z,14.48
2018-05-04T03:03:19.597Z,14.36
2018-05-04T03:05:47.999Z,14.57
2018-05-04T03:08:16.390Z,14.67
2018-05-04T03:10:44.782Z,14.79
2018-05-04T03:13:13.201Z,14.74
2018-05-04T03:15:41.962Z,14.81
2018-05-04T03:18:10.332Z,14.76
2018-05-04T03:20:38.716Z,14.79
2018-05-04T03:23:07.094Z,14.70
2018-05-04T03:25:35.455Z,14.66
2018-05-04T03:28:03.827Z,14.58
2018-05-04T03:30:33.813Z,14.61
2018-05-04T03:33:02.170Z,14.61
2018-05-04T03:35:30.950Z,14.66
2018-05-04T03:37:59.323Z,14.66
2018-05-04T03:40:27.686Z,14.58
2018-05-04T03:42:56.118Z,14.67
2018-05-04T03:45:24.438Z,14.66
2018-05-04T03:47:52.806Z,14.74
2018-05-04T03:50:21.630Z,14.59
2018-05-04T03:52:50.849Z,14.65
2018-05-04T03:55:19.666Z,14.73
2018-05-04T03:58:05.890Z,14.70
2018-05-04T04:00:51.945Z,14.58
2018-05-04T04:03:38.292Z,14.58
2018-05-04T04:06:06.707Z,14.72
2018-05-04T04:08:35.566Z,15.02
2018-05-04T04:11:03.941Z,15.21
2018-05-04T04:13:32.302Z,15.36
2018-05-04T04:16:00.667Z,15.14
2018-05-04T04:18:29.095Z,15.27
2018-05-04T04:20:57.558Z,15.46
2018-05-04T04:23:25.935Z,15.55
2018-05-04T04:25:54.315Z,16.00
2018-05-04T04:28:22.693Z,17.19
2018-05-04T04:30:51.199Z,18.50
2018-05-04T04:33:19.547Z,19.59
2018-05-04T04:35:47.922Z,20.75
2018-05-04T04:38:16.301Z,21.60
2018-05-04T04:40:44.681Z,22.53
2018-05-04T04:43:13.086Z,23.24
2018-05-04T04:45:41.515Z,23.50
2018-05-04T04:48:09.893Z,23.12
2018-05-04T04:50:38.265Z,23.51
2018-05-04T04:53:06.627Z,24.44
2018-05-04T04:55:35.440Z,25.11
2018-05-04T04:58:03.799Z,25.69
2018-05-04T05:00:32.213Z,26.60
2018-05-04T05:03:00.597Z,27.24
2018-05-04T05:05:28.982Z,27.40
2018-05-04T05:07:57.326Z,27.43
2018-05-04T05:10:25.747Z,26.82
2018-05-04T05:12:54.127Z,26.94
2018-05-04T05:15:22.494Z,26.15
2018-05-04T05:17:51.397Z,26.26
2018-05-04T05:20:19.846Z,26.26
2018-05-04T05:22:48.218Z,26.39
2018-05-04T05:25:16.607Z,25.94
2018-05-04T05:27:44.985Z,26.39
2018-05-04T05:30:13.370Z,26.30
2018-05-04T05:32:41.785Z,26.36
2018-05-04T05:35:10.238Z,28.02
2018-05-04T05:37:38.623Z,28.95
2018-05-04T05:40:07.002Z,29.42
2018-05-04T05:42:35.350Z,30.62
2018-05-04T05:45:03.727Z,31.41
2018-05-04T05:47:32.126Z,31.42
2018-05-04T05:50:00.502Z,32.04
2018-05-04T05:52:28.969Z,33.24
2018-05-04T05:54:57.365Z,33.90
2018-05-04T05:57:25.742Z,34.01
2018-05-04T05:59:54.121Z,34.40
2018-05-04T06:02:22.519Z,33.87
2018-05-04T06:04:50.898Z,34.10
2018-05-04T06:07:19.466Z,33.52
2018-05-04T06:09:47.849Z,33.49
2018-05-04T06:12:16.209Z,33.63
2018-05-04T06:14:44.553Z,33.63
2018-05-04T06:17:13.358Z,33.47
2018-05-04T06:19:41.789Z,34.10
2018-05-04T06:22:10.164Z,34.45
2018-05-04T06:24:38.535Z,35.34
2018-05-04T06:27:06.900Z,35.24
2018-05-04T06:29:35.409Z,35.70
2018-05-04T06:32:03.789Z,35.19
2018-05-04T06:34:32.187Z,35.95
2018-05-04T06:37:00.547Z,35.65
2018-05-04T06:39:28.982Z,36.00
2018-05-04T06:41:57.361Z,36.09
2018-05-04T06:44:25.723Z,35.50
2018-05-04T06:46:54.593Z,35.11
2018-05-04T06:49:23.003Z,34.51
2018-05-04T06:51:51.362Z,35.62
2018-05-04T06:54:19.811Z,36.41
2018-05-04T06:56:48.251Z,36.35
2018-05-04T06:59:16.635Z,36.73
2018-05-04T07:01:45.025Z,36.24
2018-05-04T07:04:13.393Z,36.95
2018-05-04T07:06:41.803Z,36.39
2018-05-04T07:09:10.187Z,36.36
2018-05-04T07:11:38.767Z,35.91
2018-05-04T07:14:07.131Z,37.25
2018-05-04T07:16:35.518Z,36.66
2018-05-04T07:19:03.907Z,37.42
2018-05-04T07:21:32.281Z,37.31
2018-05-04T07:24:00.755Z,38.57
2018-05-04T07:26:29.103Z,38.85
2018-05-04T07:28:57.463Z,37.90
2018-05-04T07:31:26.310Z,39.00
2018-05-04T07:33:54.677Z,37.79
2018-05-04T07:36:23.031Z,37.56
2018-05-04T07:38:51.742Z,38.68
2018-05-04T07:41:20.229Z,38.55
2018-05-04T07:43:48.601Z,39.28
2018-05-04T07:46:16.995Z,39.74
2018-05-04T07:48:45.393Z,40.44
2018-05-04T07:51:13.734Z,40.26
2018-05-04T07:53:42.123Z,39.37
2018-05-04T07:56:10.490Z,36.38
2018-05-04T07:58:38.848Z,35.44
2018-05-04T08:01:08.354Z,37.24
2018-05-04T08:03:36.767Z,36.74
2018-05-04T08:06:05.131Z,37.37
2018-05-04T08:08:33.618Z,38.66
2018-05-04T08:11:02.331Z,38.54
2018-05-04T08:13:31.097Z,38.53
2018-05-04T08:15:59.478Z,39.49
2018-05-04T08:18:27.832Z,38.95
2018-05-04T08:20:56.211Z,37.80
2018-05-04T08:23:24.610Z,38.15
2018-05-04T08:25:52.969Z,38.46
2018-05-04T08:28:21.322Z,37.66
2018-05-04T08:30:50.140Z,39.48
2018-05-04T08:33:18.501Z,40.12
2018-05-04T08:35:46.940Z,40.34
2018-05-04T08:38:15.366Z,40.99
2018-05-04T08:40:44.180Z,40.00
2018-05-04T08:43:12.600Z,39.77
2018-05-04T08:45:41.374Z,39.66
2018-05-04T08:48:09.731Z,38.73
2018-05-04T08:50:38.091Z,38.18
2018-05-04T08:53:06.476Z,39.17
2018-05-04T08:55:34.852Z,39.32
2018-05-04T08:58:03.434Z,39.49
2018-05-04T09:00:31.848Z,39.84
2018-05-04T09:03:00.191Z,39.53
2018-05-04T09:05:28.576Z,39.36
2018-05-04T09:07:56.954Z,39.79
2018-05-04T09:10:25.313Z,39.43
2018-05-04T09:12:53.664Z,39.47
2018-05-04T09:15:22.430Z,39.97
2018-05-04T09:17:50.794Z,40.19
2018-05-04T09:20:19.152Z,40.31
2018-05-04T09:22:47.546Z,41.23
2018-05-04T09:25:16.012Z,39.44
2018-05-04T09:27:44.290Z,39.37
2018-05-04T09:30:12.691Z,39.38
2018-05-04T09:32:41.031Z,38.31
2018-05-04T09:35:09.439Z,38.85
2018-05-04T09:37:37.809Z,39.49
2018-05-04T09:40:06.198Z,39.40
2018-05-04T09:42:34.565Z,39.32
2018-05-04T09:45:03.009Z,38.84
2018-05-04T09:47:31.759Z,39.07
2018-05-04T09:50:00.117Z,38.43
2018-05-04T09:52:28.493Z,38.70
2018-05-04T09:54:57.540Z,39.21
2018-05-04T09:57:26.290Z,39.93
2018-05-04T09:59:55.205Z,39.54
2018-05-04T10:02:23.648Z,39.20
2018-05-04T10:04:52.048Z,39.75
2018-05-04T10:07:20.441Z,39.67
2018-05-04T10:09:48.906Z,39.72
2018-05-04T10:12:17.255Z,39.45
2018-05-04T10:14:45.633Z,39.84
2018-05-04T10:17:14.004Z,39.84
2018-05-04T10:19:42.372Z,39.75
2018-05-04T10:22:10.760Z,38.80
2018-05-04T10:24:39.111Z,38.26
2018-05-04T10:27:07.861Z,37.36
2018-05-04T10:29:36.345Z,37.67
2018-05-04T10:32:04.719Z,36.72
2018-05-04T10:34:33.113Z,37.81
2018-05-04T10:37:01.502Z,35.70
2018-05-04T10:39:29.857Z,35.51
2018-05-04T10:41:58.233Z,34.78
2018-05-04T10:44:26.604Z,34.11
2018-05-04T10:46:54.992Z,34.28
2018-05-04T10:49:23.353Z,35.29
2018-05-04T10:51:51.764Z,35.02
2018-05-04T10:54:20.132Z,33.79
2018-05-04T10:56:48.486Z,34.63
2018-05-04T10:59:16.859Z,34.99
2018-05-04T11:01:45.233Z,35.93
2018-05-04T11:04:13.590Z,35.67
2018-05-04T11:06:42.359Z,35.82
2018-05-04T11:09:10.734Z,34.64
2018-05-04T11:11:39.114Z,34.09
2018-05-04T11:14:07.975Z,32.49
2018-05-04T11:16:36.351Z,32.19
2018-05-04T11:19:04.746Z,29.62
2018-05-04T11:21:33.225Z,29.13
2018-05-04T11:24:02.049Z,29.01
2018-05-04T11:26:30.904Z,28.25
2018-05-04T11:28:59.376Z,28.59
2018-05-04T11:31:27.735Z,28.68
2018-05-04T11:33:56.243Z,27.98
2018-05-04T11:36:24.675Z,27.09
2018-05-04T11:38:53.132Z,26.68
2018-05-04T11:41:21.470Z,26.62
2018-05-04T11:43:49.855Z,26.83
2018-05-04T11:46:18.248Z,26.60
2018-05-04T11:48:46.598Z,26.41
2018-05-04T11:51:14.982Z,25.27
2018-05-04T11:53:43.352Z,24.46
2018-05-04T11:56:11.723Z,24.43
2018-05-04T11:58:40.116Z,24.83
2018-05-04T12:01:08.475Z,24.72
2018-05-04T12:03:36.850Z,24.75
2018-05-04T12:06:05.288Z,25.08
2018-05-04T12:08:33.770Z,25.28
2018-05-04T12:11:02.136Z,25.55
2018-05-04T12:13:30.607Z,25.12
2018-05-04T12:15:58.958Z,24.58
2018-05-04T12:18:27.327Z,25.11
2018-05-04T12:20:55.759Z,25.59
2018-05-04T12:23:24.170Z,25.34
2018-05-04T12:25:52.937Z,25.06
2018-05-04T12:28:21.891Z,24.03
2018-05-04T12:30:50.249Z,24.24
2018-05-04T12:33:18.610Z,24.42
2018-05-04T12:35:47.424Z,24.63
2018-05-04T12:38:15.782Z,25.32
2018-05-04T12:40:44.685Z,25.17
2018-05-04T12:43:13.142Z,25.40
2018-05-04T12:45:41.914Z,25.50
2018-05-04T12:48:10.380Z,24.68
2018-05-04T12:50:38.766Z,24.52
2018-05-04T12:53:07.239Z,24.68
2018-05-04T12:55:35.605Z,24.86
2018-05-04T12:58:03.970Z,24.52
2018-05-04T13:00:32.382Z,24.87
2018-05-04T13:03:00.737Z,25.21
2018-05-04T13:05:29.152Z,25.74
2018-05-04T13:07:57.526Z,25.47
2018-05-04T13:10:25.985Z,25.21
2018-05-04T13:12:54.367Z,25.13
2018-05-04T13:15:22.742Z,25.13
2018-05-04T13:17:51.103Z,24.62
2018-05-04T13:20:19.485Z,23.95
2018-05-04T13:22:48.397Z,24.28
2018-05-04T13:25:16.867Z,24.85
2018-05-04T13:27:45.502Z,24.56
2018-05-04T13:30:14.249Z,24.72
2018-05-04T13:32:43.432Z,24.74
2018-05-04T13:35:12.071Z,24.97
2018-05-04T13:37:40.925Z,24.98
2018-05-04T13:40:09.379Z,24.84
2018-05-04T13:42:38.010Z,24.55
2018-05-04T13:45:06.381Z,24.37
2018-05-04T13:47:34.787Z,23.42
2018-05-04T13:50:03.553Z,23.43
2018-05-04T13:52:32.317Z,23.52
2018-05-04T13:55:00.694Z,24.40
2018-05-04T13:57:29.074Z,24.92
2018-05-04T13:59:57.607Z,25.23
2018-05-04T14:02:25.971Z,25.12
2018-05-04T14:04:54.752Z,25.00
2018-05-04T14:07:23.844Z,24.80
2018-05-04T14:09:52.200Z,25.01
2018-05-04T14:12:20.603Z,25.58
2018-05-04T14:14:49.054Z,24.95
2018-05-04T14:17:17.406Z,25.73
2018-05-04T14:19:45.830Z,26.03
2018-05-04T14:22:14.198Z,25.91
2018-05-04T14:24:42.795Z,25.61
2018-05-04T14:27:11.223Z,26.07
2018-05-04T14:29:39.582Z,26.20
2018-05-04T14:32:09.247Z,25.10
2018-05-04T14:34:37.621Z,25.40
2018-05-04T14:37:05.973Z,24.57
2018-05-04T14:39:34.382Z,24.37
2018-05-04T14:42:02.858Z,24.55
2018-05-04T14:44:31.222Z,24.37
2018-05-04T14:46:59.590Z,25.18
2018-05-04T14:49:28.005Z,25.95
2018-05-04T14:51:56.421Z,26.30
2018-05-04T14:54:25.805Z,26.26
2018-05-04T14:56:54.171Z,25.92
2018-05-04T14:59:22.557Z,25.96
2018-05-04T15:01:50.924Z,25.80
2018-05-04T15:04:19.297Z,25.69
2018-05-04T15:06:47.646Z,24.98
2018-05-04T15:09:16.044Z,25.23
2018-05-04T15:11:44.410Z,24.75
2018-05-04T15:14:12.768Z,25.05
2018-05-04T15:16:41.234Z,24.71
2018-05-04T15:19:09.575Z,24.59
2018-05-04T15:21:37.930Z,24.10
2018-05-04T15:24:06.292Z,24.21
2018-05-04T15:26:34.668Z,24.69
2018-05-04T15:29:03.025Z,23.82
2018-05-04T15:31:31.851Z,23.95
2018-05-04T15:34:00.200Z,23.94
2018-05-04T15:36:28.953Z,23.11
2018-05-04T15:38:57.331Z,23.42
2018-05-04T15:41:25.793Z,23.66
2018-05-04T15:43:54.160Z,24.28
2018-05-04T15:46:22.517Z,24.17
2018-05-04T15:48:56.376Z,23.83
2018-05-04T15:54:39.092Z,24.59
2018-05-04T15:57:07.811Z,24.71
2018-05-04T15:59:36.195Z,24.47
2018-05-04T16:02:04.973Z,23.82
2018-05-04T16:04:33.424Z,23.57
2018-05-04T16:07:01.836Z,23.56
2018-05-04T16:09:30.227Z,23.07
2018-05-04T16:11:58.985Z,23.57
2018-05-04T16:14:27.341Z,23.55
2018-05-04T16:16:55.735Z,23.66
2018-05-04T16:19:24.090Z,23.89
2018-05-04T16:21:52.457Z,23.88
2018-05-04T16:24:20.822Z,24.11
2018-05-04T16:26:49.588Z,23.84
2018-05-04T16:29:17.957Z,23.19
2018-05-04T16:31:46.363Z,23.27
2018-05-04T16:34:15.111Z,23.46
2018-05-04T16:36:43.593Z,23.41
2018-05-04T16:39:11.981Z,22.91
2018-05-04T16:41:40.417Z,23.67
2018-05-04T16:44:08.749Z,23.71
2018-05-04T16:49:46.091Z,22.80
2018-05-04T16:52:14.538Z,22.73
2018-05-04T16:54:42.913Z,23.08
2018-05-04T16:57:11.567Z,23.31
2018-05-04T16:59:39.947Z,22.87
2018-05-04T17:02:09.107Z,22.39
2018-05-04T17:04:37.874Z,22.27
2018-05-04T17:07:06.638Z,22.72
2018-05-04T17:09:34.997Z,21.94
2018-05-04T17:12:03.367Z,22.26
2018-05-04T17:14:31.782Z,22.01
2018-05-04T17:17:00.151Z,21.87
2018-05-04T17:19:28.543Z,21.72
2018-05-04T17:21:56.958Z,22.06
2018-05-04T17:24:25.703Z,22.02
2018-05-04T17:26:54.060Z,22.13
2018-05-04T17:29:22.456Z,22.06
2018-05-04T17:31:50.820Z,21.60
2018-05-04T17:34:19.338Z,21.41
2018-05-04T17:36:47.727Z,21.37
2018-05-04T17:39:16.089Z,21.90
2018-05-04T17:41:44.439Z,21.92
2018-05-04T17:44:12.823Z,22.23
2018-05-04T17:46:41.258Z,22.19
2018-05-04T17:49:10.008Z,21.86
2018-05-04T17:51:38.387Z,22.08
2018-05-04T17:54:06.767Z,21.85
2018-05-04T17:56:35.214Z,21.69
2018-05-04T17:59:03.585Z,20.97
2018-05-04T18:01:31.952Z,21.42
2018-05-04T18:04:00.323Z,21.68
2018-05-04T18:06:28.743Z,21.66
2018-05-04T18:08:57.129Z,21.35
2018-05-04T18:11:25.503Z,21.03
2018-05-04T18:13:53.885Z,21.15
2018-05-04T18:16:22.234Z,20.85
2018-05-04T18:18:50.604Z,20.70
2018-05-04T18:21:18.975Z,21.19
2018-05-04T18:23:47.362Z,20.78
2018-05-04T18:28:50.829Z,20.56
2018-05-04T18:31:19.206Z,20.78
2018-05-04T18:33:47.570Z,20.32
2018-05-04T18:36:15.942Z,20.47
2018-05-04T18:38:44.314Z,20.57
2018-05-04T18:41:12.663Z,20.16
2018-05-04T18:43:41.049Z,20.34
2018-05-04T18:46:09.422Z,20.65
2018-05-04T18:48:37.856Z,20.13
2018-05-04T18:51:06.331Z,20.03
2018-05-04T18:53:34.795Z,20.33
2018-05-04T18:56:03.167Z,20.31
2018-05-04T18:58:32.143Z,20.05
2018-05-04T19:01:00.508Z,19.92
2018-05-04T19:03:29.280Z,19.54
2018-05-04T19:05:58.057Z,19.51
2018-05-04T19:08:26.438Z,19.64
2018-05-04T19:10:54.810Z,20.27
2018-05-04T19:13:23.182Z,20.33
2018-05-04T19:15:51.540Z,19.62
2018-05-04T19:18:19.928Z,19.70
2018-05-04T19:20:48.309Z,19.49
2018-05-04T19:23:16.667Z,19.34
2018-05-04T19:25:45.026Z,19.26
2018-05-04T19:28:13.455Z,19.40
2018-05-04T19:30:41.830Z,18.71
2018-05-04T19:33:10.212Z,18.85
2018-05-04T19:35:38.619Z,18.46
2018-05-04T19:38:07.426Z,18.25
2018-05-04T19:40:35.787Z,18.00
2018-05-04T19:43:04.271Z,18.11
2018-05-04T19:45:33.120Z,18.22
2018-05-04T19:48:01.492Z,17.67
2018-05-04T19:50:29.894Z,17.87
2018-05-04T19:52:58.243Z,18.55
2018-05-04T19:55:26.634Z,18.46
2018-05-04T19:57:55.054Z,18.64
2018-05-04T20:00:23.801Z,17.81
2018-05-04T20:02:52.183Z,17.85
2018-05-04T20:05:20.575Z,18.04
2018-05-04T20:07:48.945Z,17.66
2018-05-04T20:10:17.341Z,17.17
2018-05-04T20:12:45.709Z,17.31
2018-05-04T20:15:14.105Z,17.34
2018-05-04T20:20:17.139Z,17.62
2018-05-04T20:22:45.519Z,17.30
2018-05-04T20:25:13.941Z,17.22
2018-05-04T20:27:42.316Z,17.29
2018-05-04T20:30:10.720Z,17.02
2018-05-04T20:32:39.179Z,16.93
2018-05-04T20:35:07.546Z,16.70
2018-05-04T20:37:35.915Z,16.88
2018-05-04T20:40:04.298Z,16.66
2018-05-04T20:42:32.680Z,16.94
2018-05-04T20:45:01.070Z,17.38
2018-05-04T20:47:29.447Z,17.16
2018-05-04T20:49:57.836Z,16.90
2018-05-04T20:52:26.518Z,17.20
2018-05-04T20:54:55.032Z,17.41
2018-05-04T20:57:23.579Z,16.81
2018-05-04T20:59:52.116Z,16.49
2018-05-04T21:02:20.861Z,16.81
2018-05-04T21:04:49.297Z,16.70
2018-05-04T21:07:17.685Z,16.77
2018-05-04T21:09:46.054Z,16.38
2018-05-04T21:12:14.461Z,16.50
2018-05-04T21:14:42.916Z,16.53
2018-05-04T21:17:11.294Z,16.65
2018-05-04T21:19:39.763Z,16.45
2018-05-04T21:22:08.706Z,16.80
2018-05-04T21:24:37.062Z,16.84
2018-05-04T21:27:05.478Z,16.75
2018-05-04T21:29:33.830Z,16.98
2018-05-04T21:32:02.206Z,17.12
2018-05-04T21:34:30.593Z,16.57
2018-05-04T21:36:58.952Z,16.72
2018-05-04T21:39:27.357Z,16.66
2018-05-04T21:41:55.733Z,16.49
2018-05-04T21:44:24.330Z,16.61
2018-05-04T21:46:52.706Z,16.49
2018-05-04T21:49:21.092Z,16.49
2018-05-04T21:51:49.547Z,16.56
2018-05-04T21:54:17.865Z,16.71
2018-05-04T21:56:46.307Z,16.31
2018-05-04T21:59:14.735Z,16.48
2018-05-04T22:01:43.071Z,16.37
2018-05-04T22:04:11.473Z,16.16
2018-05-04T22:06:39.941Z,15.75
2018-05-04T22:09:08.308Z,15.65
2018-05-04T22:11:36.759Z,15.72
2018-05-04T22:14:05.163Z,15.77
2018-05-04T22:16:33.770Z,15.46
2018-05-04T22:19:02.182Z,15.79
2018-05-04T22:21:30.995Z,15.68
2018-05-04T22:23:59.371Z,15.68
2018-05-04T22:26:27.847Z,15.74
2018-05-04T22:28:56.158Z,15.54
2018-05-04T22:31:24.531Z,15.61
2018-05-04T22:33:52.942Z,15.41
2018-05-04T22:36:21.286Z,15.58
2018-05-04T22:38:49.670Z,15.90
2018-05-04T22:41:18.042Z,15.69
2018-05-04T22:43:46.403Z,15.75
2018-05-04T22:46:14.772Z,15.47
2018-05-04T22:48:43.218Z,15.17
2018-05-04T22:51:11.594Z,15.08
2018-05-04T22:53:39.951Z,15.24
2018-05-04T22:56:08.328Z,15.24
2018-05-04T22:58:36.686Z,15.38
2018-05-04T23:01:05.055Z,15.38
2018-05-04T23:03:33.426Z,15.50
2018-05-04T23:06:01.774Z,15.56
2018-05-04T23:08:31.033Z,15.31
2018-05-04T23:10:59.453Z,15.68
2018-05-04T23:13:28.066Z,15.20
2018-05-04T23:15:56.478Z,15.16
2018-05-04T23:18:24.856Z,15.06
2018-05-04T23:20:53.265Z,15.25
2018-05-04T23:23:22.303Z,15.05
2018-05-04T23:25:50.671Z,14.86
2018-05-04T23:28:19.518Z,15.25
2018-05-04T23:30:47.883Z,15.10
2018-05-04T23:33:16.285Z,15.33
2018-05-04T23:35:44.641Z,15.16
2018-05-04T23:38:12.990Z,15.45
2018-05-04T23:40:41.385Z,15.46
2018-05-04T23:43:09.781Z,15.52
2018-05-04T23:45:38.134Z,15.51
2018-05-04T23:48:06.561Z,15.26
2018-05-04T23:50:35.008Z,15.13
2018-05-04T23:53:03.481Z,15.10
2018-05-04T23:55:31.887Z,15.24
2018-05-04T23:58:00.236Z,15.00
